createdAt,value
2022-12-17T00:00:42.342Z,-1.30
2022-12-17T00:03:29.869Z,0.10
2022-12-17T00:09:01.867Z,0.20
2022-12-17T00:11:47.256Z,0.10
2022-12-17T00:25:36.727Z,0.10
2022-12-17T00:28:22.207Z,0.50
2022-12-17T00:31:11.626Z,0.10
2022-12-17T00:36:45.008Z,0.10
2022-12-17T00:39:31.167Z,0.10
2022-12-17T01:04:26.894Z,0.20
2022-12-17T01:09:58.304Z,0.10
2022-12-17T01:21:01.961Z,0.10
2022-12-17T01:32:05.235Z,0.00
2022-12-17T01:37:36.361Z,-0.10
2022-12-17T01:43:07.490Z,0.80
2022-12-17T01:46:02.881Z,0.00
2022-12-17T01:48:56.724Z,0.00
2022-12-17T01:51:44.064Z,0.00
2022-12-17T01:54:30.850Z,-0.10
2022-12-17T01:57:17.184Z,-0.10
2022-12-17T02:00:27.585Z,-0.10
2022-12-17T02:06:30.839Z,0.00
2022-12-17T02:09:52.895Z,-0.20
2022-12-17T02:13:10.002Z,1.00
2022-12-17T02:16:09.339Z,-0.10
2022-12-17T02:19:13.994Z,-0.20
2022-12-17T02:22:01.884Z,-0.20
2022-12-17T02:25:11.829Z,-0.20
2022-12-17T02:30:43.797Z,-0.20
2022-12-17T02:36:25.041Z,-0.20
2022-12-17T02:39:11.459Z,-0.10
2022-12-17T02:42:10.336Z,-0.20
2022-12-17T02:44:58.022Z,-0.20
2022-12-17T02:47:44.498Z,-0.20
2022-12-17T02:50:30.854Z,-0.30
2022-12-17T02:53:19.996Z,-0.30
2022-12-17T02:58:54.034Z,0.10
2022-12-17T03:04:25.487Z,-0.20
2022-12-17T03:07:11.348Z,-0.30
2022-12-17T03:09:56.881Z,-0.30
2022-12-17T03:15:29.012Z,-0.20
2022-12-17T03:18:14.656Z,-0.20
2022-12-17T03:20:59.849Z,-0.20
2022-12-17T03:23:45.321Z,-0.30
2022-12-17T03:26:30.690Z,-0.20
2022-12-17T03:34:48.383Z,-0.20
2022-12-17T03:37:33.480Z,-0.20
2022-12-17T03:40:19.326Z,-0.20
2022-12-17T03:43:05.326Z,0.20
2022-12-17T03:45:50.752Z,-0.20
2022-12-17T03:48:36.724Z,-0.20
2022-12-17T03:56:53.949Z,-0.20
2022-12-17T03:59:39.762Z,-0.70
2022-12-17T04:08:05.248Z,-0.40
2022-12-17T04:10:50.916Z,-0.40
2022-12-17T04:16:28.050Z,-0.70
2022-12-17T04:21:59.906Z,-0.80
2022-12-17T04:24:45.412Z,-0.60
2022-12-17T04:27:30.972Z,-0.40
2022-12-17T04:30:16.303Z,-0.30
2022-12-17T04:33:02.145Z,0.00
2022-12-17T04:35:47.474Z,-0.40
2022-12-17T04:38:33.367Z,-0.60
2022-12-17T04:41:18.746Z,0.10
2022-12-17T04:44:04.532Z,-0.50
2022-12-17T04:55:07.927Z,-0.60
2022-12-17T04:57:53.300Z,-0.40
2022-12-17T05:00:39.169Z,-0.40
2022-12-17T05:03:32.664Z,-0.50
2022-12-17T05:09:04.941Z,-0.50
2022-12-17T05:11:50.391Z,-0.30
2022-12-17T05:14:36.328Z,-0.40
2022-12-17T05:22:53.673Z,0.10
2022-12-17T05:28:25.389Z,-0.40
2022-12-17T05:31:13.391Z,-0.30
2022-12-17T05:36:45.263Z,-0.40
2022-12-17T05:47:48.412Z,-0.40
2022-12-17T06:01:46.473Z,-0.40
2022-12-17T06:04:32.442Z,-0.20
2022-12-17T06:12:49.620Z,-0.40
2022-12-17T06:15:35.709Z,-0.20
2022-12-17T06:18:21.052Z,-0.40
2022-12-17T06:23:52.222Z,-0.40
2022-12-17T06:26:38.042Z,-0.40
2022-12-17T06:29:23.468Z,-0.40
2022-12-17T06:35:05.310Z,0.00
2022-12-17T06:37:51.150Z,-0.50
2022-12-17T06:46:10.798Z,-0.40
2022-12-17T06:48:56.597Z,-0.50
2022-12-17T06:51:41.852Z,-1.40
2022-12-17T06:54:27.821Z,-0.40
2022-12-17T07:02:44.827Z,-0.50
2022-12-17T07:08:18.024Z,-0.50
2022-12-17T07:11:03.844Z,-0.50
2022-12-17T07:19:26.778Z,-0.80
2022-12-17T07:27:44.930Z,-0.50
2022-12-17T07:30:31.766Z,0.10
2022-12-17T07:33:24.252Z,-0.40
2022-12-17T07:36:12.054Z,-0.50
2022-12-17T07:38:57.628Z,-0.30
2022-12-17T07:41:43.479Z,-0.30
2022-12-17T07:58:22.424Z,-0.10
2022-12-17T08:01:07.857Z,-0.40
2022-12-17T08:03:53.246Z,-0.30
2022-12-17T08:09:25.038Z,0.00
2022-12-17T08:12:10.885Z,-0.90
2022-12-17T08:20:29.487Z,-1.10
2022-12-17T08:23:22.920Z,-0.40
2022-12-17T08:28:54.988Z,-0.60
2022-12-17T08:31:43.347Z,-0.30
2022-12-17T08:48:26.739Z,-0.50
2022-12-17T08:54:14.955Z,0.40
2022-12-17T08:57:00.755Z,-0.30
2022-12-17T08:59:46.221Z,-0.40
2022-12-17T09:08:06.794Z,-0.40
2022-12-17T09:16:25.119Z,-0.30
2022-12-17T09:21:56.634Z,-0.20
2022-12-17T09:27:27.611Z,-0.50
2022-12-17T09:32:59.325Z,-0.20
2022-12-17T09:35:45.309Z,-0.50
2022-12-17T09:38:33.897Z,-0.20
2022-12-17T09:41:46.132Z,-0.30
2022-12-17T09:44:53.943Z,-0.40
2022-12-17T09:48:10.679Z,-0.70
2022-12-17T09:53:55.954Z,-0.40
2022-12-17T09:56:44.700Z,-0.30
2022-12-17T09:59:46.358Z,-0.40
2022-12-17T10:02:54.067Z,-0.30
2022-12-17T10:05:49.787Z,-0.40
2022-12-17T10:08:39.572Z,-0.30
2022-12-17T10:11:34.907Z,-0.40
2022-12-17T10:14:22.842Z,-0.20
2022-12-17T10:17:12.066Z,-0.40
2022-12-17T10:20:00.580Z,-0.50
2022-12-17T10:22:46.711Z,-0.20
2022-12-17T10:25:40.148Z,1.10
2022-12-17T10:28:37.295Z,-0.30
2022-12-17T10:31:38.122Z,-0.30
2022-12-17T10:34:38.961Z,-0.30
2022-12-17T10:37:37.942Z,0.30
2022-12-17T10:40:39.327Z,-0.30
2022-12-17T10:43:49.193Z,-0.30
2022-12-17T10:46:51.453Z,-0.40
2022-12-17T10:49:43.585Z,-0.30
2022-12-17T10:52:48.860Z,-0.30
2022-12-17T10:55:49.098Z,-0.20
2022-12-17T11:01:23.297Z,-0.20
2022-12-17T11:04:12.894Z,-0.20
2022-12-17T11:10:08.986Z,-0.20
2022-12-17T11:13:09.876Z,-0.10
2022-12-17T11:16:13.570Z,-0.10
2022-12-17T11:19:11.173Z,-0.20
2022-12-17T11:22:10.199Z,-0.10
2022-12-17T11:25:03.813Z,-0.10
2022-12-17T11:28:03.803Z,-0.20
2022-12-17T11:30:56.163Z,-0.20
2022-12-17T11:34:10.757Z,-0.10
2022-12-17T11:37:24.106Z,-0.10
2022-12-17T11:50:14.969Z,-0.10
2022-12-17T11:53:44.430Z,-0.10
2022-12-17T11:56:37.167Z,-0.10
2022-12-17T11:59:52.701Z,-0.10
2022-12-17T12:03:50.589Z,0.10
2022-12-17T12:07:03.823Z,0.00
2022-12-17T12:10:11.663Z,0.10
2022-12-17T12:13:31.389Z,0.00
2022-12-17T12:16:44.805Z,0.00
2022-12-17T12:20:20.835Z,-0.10
2022-12-17T12:23:56.290Z,-0.10
2022-12-17T12:27:09.818Z,0.10
2022-12-17T12:30:28.493Z,0.90
2022-12-17T12:33:42.506Z,0.20
2022-12-17T12:36:31.248Z,1.10
2022-12-17T12:39:17.244Z,2.70
2022-12-17T12:42:22.177Z,2.00
2022-12-17T12:45:45.930Z,1.80
2022-12-17T12:49:05.254Z,3.20
2022-12-17T12:51:59.421Z,3.10
2022-12-17T12:55:10.033Z,3.40
2022-12-17T12:58:39.569Z,4.00
2022-12-17T13:01:25.227Z,3.40
2022-12-17T13:04:14.831Z,2.70
2022-12-17T13:06:49.122Z,2.40
2022-12-17T13:11:47.405Z,2.20
2022-12-17T13:14:20.709Z,3.30
2022-12-17T13:16:47.754Z,3.60
2022-12-17T13:19:40.280Z,3.00
2022-12-17T13:22:21.948Z,3.70
2022-12-17T13:25:09.225Z,5.00
2022-12-17T13:27:36.028Z,4.10
2022-12-17T13:30:17.992Z,3.90
2022-12-17T13:33:24.914Z,3.20
2022-12-17T13:36:12.891Z,3.50
2022-12-17T13:39:13.966Z,3.40
2022-12-17T13:44:29.792Z,3.20
2022-12-17T13:46:56.701Z,3.00
2022-12-17T13:49:30.005Z,2.70
2022-12-17T13:52:20.544Z,2.40
2022-12-17T13:57:25.163Z,1.50
2022-12-17T14:02:35.077Z,2.00
2022-12-17T14:05:08.155Z,0.90
2022-12-17T14:07:39.106Z,1.00
2022-12-17T14:10:18.105Z,0.90
2022-12-17T14:15:32.265Z,0.70
2022-12-17T14:17:59.813Z,0.50
2022-12-17T14:20:31.765Z,0.70
2022-12-17T14:23:21.931Z,0.60
2022-12-17T14:25:49.182Z,0.50
2022-12-17T14:28:51.525Z,1.30
2022-12-17T14:31:28.164Z,0.40
2022-12-17T14:34:11.735Z,1.10
2022-12-17T14:36:43.748Z,0.30
2022-12-17T14:39:25.660Z,-0.40
2022-12-17T14:42:12.460Z,0.40
2022-12-17T14:44:56.068Z,0.30
2022-12-17T14:47:36.549Z,0.30
2022-12-17T14:50:12.569Z,0.20
2022-12-17T14:52:55.129Z,0.20
2022-12-17T14:55:55.217Z,0.10
2022-12-17T14:58:25.338Z,0.10
2022-12-17T15:03:37.937Z,0.00
2022-12-17T15:06:09.007Z,0.10
2022-12-17T15:08:56.305Z,0.00
2022-12-17T15:11:23.528Z,0.00
2022-12-17T15:16:24.288Z,0.10
2022-12-17T15:18:51.312Z,0.00
2022-12-17T15:21:19.627Z,0.00
2022-12-17T15:23:47.198Z,0.00
2022-12-17T15:26:15.214Z,0.00
2022-12-17T15:31:13.310Z,-0.10
2022-12-17T15:33:41.431Z,-0.10
2022-12-17T15:36:11.811Z,-0.10
2022-12-17T15:38:39.466Z,0.00
2022-12-17T15:41:25.616Z,-0.30
2022-12-17T15:43:52.792Z,1.00
2022-12-17T15:48:50.341Z,0.00
2022-12-17T15:51:19.917Z,-0.10
2022-12-17T15:53:48.469Z,-0.20
2022-12-17T15:56:25.285Z,-0.20
2022-12-17T15:58:52.883Z,-0.20
2022-12-17T16:01:20.373Z,-0.40
2022-12-17T16:08:42.136Z,-0.20
2022-12-17T16:11:11.850Z,-0.30
2022-12-17T16:16:07.441Z,-0.20
2022-12-17T16:18:35.874Z,-0.40
2022-12-17T16:21:04.901Z,0.70
2022-12-17T16:26:02.679Z,-0.30
2022-12-17T16:28:30.805Z,-0.30
2022-12-17T16:31:05.926Z,-0.40
2022-12-17T16:33:39.091Z,-0.40
2022-12-17T16:36:08.380Z,-0.60
2022-12-17T16:38:36.139Z,-0.70
2022-12-17T16:43:34.710Z,-0.30
2022-12-17T16:46:03.145Z,-0.60
2022-12-17T16:48:39.785Z,-0.40
2022-12-17T16:51:20.108Z,-0.40
2022-12-17T16:53:53.294Z,-0.40
2022-12-17T16:56:24.688Z,-0.50
2022-12-17T17:01:26.434Z,-0.70
2022-12-17T17:09:04.574Z,-0.80
2022-12-17T17:13:59.109Z,-0.40
2022-12-17T17:16:26.650Z,-0.50
2022-12-17T17:23:57.252Z,-0.60
2022-12-17T17:26:24.849Z,-0.30
2022-12-17T17:31:19.316Z,-0.70
2022-12-17T17:33:49.714Z,-0.90
2022-12-17T17:36:24.132Z,-0.60
2022-12-17T17:38:57.191Z,-0.70
2022-12-17T17:41:27.497Z,-0.60
2022-12-17T17:44:00.787Z,-1.30
2022-12-17T17:46:30.420Z,-0.60
2022-12-17T17:48:59.510Z,-0.50
2022-12-17T17:52:07.127Z,-0.70
2022-12-17T17:54:19.454Z,-0.60
2022-12-17T17:56:46.369Z,-0.60
2022-12-17T17:59:19.212Z,-0.70
2022-12-17T18:01:51.765Z,-0.70
2022-12-17T18:04:21.650Z,-0.70
2022-12-17T18:09:36.288Z,-0.10
2022-12-17T18:15:13.855Z,-0.70
2022-12-17T18:17:37.698Z,-0.70
2022-12-17T18:20:05.365Z,-0.90
2022-12-17T18:22:32.274Z,-0.70
2022-12-17T18:24:59.226Z,-0.70
2022-12-17T18:27:26.127Z,-0.70
2022-12-17T18:29:53.142Z,-0.60
2022-12-17T18:32:20.060Z,-0.80
2022-12-17T18:39:42.144Z,-0.80
2022-12-17T18:42:27.918Z,-0.90
2022-12-17T18:47:22.226Z,-0.70
2022-12-17T18:49:49.547Z,-0.90
2022-12-17T19:02:13.373Z,-0.80
2022-12-17T19:12:06.126Z,-0.30
2022-12-17T19:17:01.879Z,-0.80
2022-12-17T19:29:22.871Z,-1.00
2022-12-17T19:34:22.193Z,-0.90
2022-12-17T19:36:49.311Z,-0.90
2022-12-17T19:39:19.108Z,-0.90
2022-12-17T19:44:15.923Z,-1.00
2022-12-17T19:49:15.428Z,-1.00
2022-12-17T19:51:44.168Z,-0.90
2022-12-17T19:54:14.688Z,-1.00
2022-12-17T19:56:43.622Z,-1.00
2022-12-17T20:01:44.309Z,-1.00
2022-12-17T20:04:13.956Z,-1.40
2022-12-17T20:06:42.059Z,-0.50
2022-12-17T20:11:36.739Z,-1.20
2022-12-17T20:14:22.022Z,-1.00
2022-12-17T20:16:56.102Z,-1.00
2022-12-17T20:19:32.448Z,-1.10
2022-12-17T20:22:04.305Z,-0.90
2022-12-17T20:29:27.672Z,-1.20
2022-12-17T20:31:55.930Z,-1.00
2022-12-17T20:34:24.363Z,-1.20
2022-12-17T20:36:53.034Z,-1.20
2022-12-17T20:41:53.875Z,-1.20
2022-12-17T20:54:11.391Z,-1.40
2022-12-17T20:56:39.984Z,-1.10
2022-12-17T20:59:11.584Z,-1.20
2022-12-17T21:01:38.534Z,-1.20
2022-12-17T21:04:09.225Z,-1.20
2022-12-17T21:09:09.963Z,-1.30
2022-12-17T21:11:38.569Z,-1.30
2022-12-17T21:14:12.942Z,-1.30
2022-12-17T21:16:40.418Z,-1.10
2022-12-17T21:19:09.194Z,-1.40
2022-12-17T21:21:37.893Z,-1.00
2022-12-17T21:26:40.001Z,-1.50
2022-12-17T21:29:08.952Z,-1.40
2022-12-17T21:31:49.457Z,-1.20
2022-12-17T21:34:25.341Z,-1.40
2022-12-17T21:39:21.041Z,-1.40
2022-12-17T21:54:30.632Z,-1.00
2022-12-17T22:04:25.376Z,-1.30
2022-12-17T22:09:32.700Z,-2.50
2022-12-17T22:15:06.247Z,-1.70
2022-12-17T22:17:33.559Z,-1.50
2022-12-17T22:20:00.459Z,-1.60
2022-12-17T22:37:22.314Z,-1.60
2022-12-17T22:44:35.118Z,-1.70
2022-12-17T22:54:10.367Z,-1.60
2022-12-17T22:56:52.421Z,-1.50
2022-12-17T22:59:27.483Z,-0.40
2022-12-17T23:01:54.498Z,-2.00
2022-12-17T23:06:49.069Z,-1.80
2022-12-17T23:09:20.778Z,-1.70
2022-12-17T23:11:49.063Z,-2.10
2022-12-17T23:19:12.566Z,-1.80
2022-12-17T23:24:07.495Z,-1.90
2022-12-17T23:26:36.819Z,-1.80
2022-12-17T23:29:08.821Z,-1.80
2022-12-17T23:31:40.092Z,-1.80
2022-12-17T23:34:08.167Z,-1.70
2022-12-17T23:36:36.491Z,-1.80
2022-12-17T23:41:31.912Z,-2.10
2022-12-17T23:46:29.404Z,-1.80
2022-12-17T23:48:56.351Z,-1.80
2022-12-17T23:51:24.500Z,-1.80
2022-12-17T23:53:51.731Z,-1.80
2022-12-17T23:56:26.177Z,-1.90
2022-12-17T23:58:58.889Z,-1.90
